createdAt,value
2022-12-25T00:00:21.206Z,12.80
2022-12-25T00:05:23.788Z,13.00
2022-12-25T00:10:26.029Z,12.80
2022-12-25T00:15:28.158Z,12.90
2022-12-25T00:20:30.224Z,12.90
2022-12-25T00:25:32.377Z,12.80
2022-12-25T00:30:34.530Z,12.90
2022-12-25T00:40:44.064Z,12.90
2022-12-25T00:45:55.798Z,12.90
2022-12-25T00:51:00.558Z,12.90
2022-12-25T00:56:05.934Z,12.90
2022-12-25T01:01:11.023Z,12.90
2022-12-25T01:06:13.442Z,12.90
2022-12-25T01:11:15.569Z,12.90
2022-12-25T01:21:21.715Z,12.90
2022-12-25T01:26:25.986Z,12.90
2022-12-25T01:36:30.720Z,12.90
2022-12-25T01:41:32.934Z,12.90
2022-12-25T01:46:35.740Z,12.80
2022-12-25T01:51:49.357Z,12.80
2022-12-25T01:56:53.873Z,12.80
2022-12-25T02:01:57.400Z,12.80
2022-12-25T02:06:59.865Z,12.80
2022-12-25T02:12:02.118Z,12.70
2022-12-25T02:17:36.265Z,12.70
2022-12-25T02:22:38.267Z,12.70
2022-12-25T02:27:57.396Z,12.60
2022-12-25T02:33:25.038Z,12.50
2022-12-25T02:38:36.512Z,12.50
2022-12-25T02:44:02.490Z,12.50
2022-12-25T02:49:35.669Z,12.50
2022-12-25T02:55:00.805Z,12.50
2022-12-25T03:00:23.574Z,12.40
2022-12-25T03:05:46.911Z,12.30
2022-12-25T03:11:20.949Z,12.20
2022-12-25T03:16:41.744Z,12.10
2022-12-25T03:22:02.530Z,11.90
2022-12-25T03:27:04.671Z,11.80
2022-12-25T03:32:10.893Z,11.90
2022-12-25T03:37:44.737Z,11.50
2022-12-25T03:43:12.511Z,11.40
2022-12-25T03:48:35.223Z,11.30
2022-12-25T03:54:17.675Z,11.20
2022-12-25T03:59:40.489Z,11.20
2022-12-25T04:05:01.443Z,11.20
2022-12-25T04:15:43.854Z,11.20
2022-12-25T04:21:04.681Z,11.20
2022-12-25T04:26:25.580Z,11.10
2022-12-25T04:31:46.341Z,11.20
2022-12-25T04:36:48.451Z,11.30
2022-12-25T04:41:50.540Z,11.40
2022-12-25T04:46:52.796Z,11.50
2022-12-25T04:51:55.220Z,11.60
2022-12-25T04:56:57.528Z,11.70
2022-12-25T05:01:59.855Z,11.90
2022-12-25T05:07:02.052Z,11.80
2022-12-25T05:12:04.488Z,11.90
2022-12-25T05:17:07.921Z,11.90
2022-12-25T05:22:10.034Z,12.00
2022-12-25T05:27:12.136Z,12.00
2022-12-25T05:32:14.351Z,12.10
2022-12-25T05:37:16.460Z,12.10
2022-12-25T05:42:18.610Z,12.10
2022-12-25T05:47:20.772Z,12.20
2022-12-25T05:52:23.419Z,12.20
2022-12-25T05:57:25.831Z,12.20
2022-12-25T06:02:28.004Z,12.30
2022-12-25T06:07:31.009Z,12.30
2022-12-25T06:12:33.112Z,12.30
2022-12-25T06:17:35.270Z,12.30
2022-12-25T06:22:37.449Z,12.30
2022-12-25T06:27:39.652Z,12.40
2022-12-25T06:32:41.894Z,12.40
2022-12-25T06:37:44.059Z,12.40
2022-12-25T06:42:46.155Z,12.40
2022-12-25T06:47:48.305Z,12.40
2022-12-25T06:52:50.479Z,12.50
2022-12-25T06:57:52.615Z,12.50
2022-12-25T07:02:54.784Z,12.50
2022-12-25T07:07:56.988Z,12.50
2022-12-25T07:12:59.161Z,12.50
2022-12-25T07:18:01.654Z,12.60
2022-12-25T07:28:06.464Z,12.50
2022-12-25T07:33:08.579Z,12.50
2022-12-25T07:38:11.239Z,12.50
2022-12-25T07:43:13.431Z,12.50
2022-12-25T07:53:19.306Z,12.40
2022-12-25T08:03:26.126Z,12.40
2022-12-25T08:08:28.586Z,12.40
2022-12-25T08:13:32.190Z,12.50
2022-12-25T08:18:36.199Z,12.50
2022-12-25T08:23:41.478Z,12.50
2022-12-25T08:28:43.789Z,12.10
2022-12-25T08:33:47.831Z,12.50
2022-12-25T08:38:51.238Z,12.60
2022-12-25T08:43:53.946Z,12.60
2022-12-25T08:48:56.858Z,12.60
2022-12-25T08:54:00.950Z,12.70
2022-12-25T08:59:03.346Z,13.00
2022-12-25T09:04:05.574Z,12.80
2022-12-25T09:09:07.881Z,12.80
2022-12-25T09:14:09.986Z,12.80
2022-12-25T09:19:12.073Z,12.90
2022-12-25T09:24:14.184Z,12.90
2022-12-25T09:29:17.981Z,13.00
2022-12-25T09:34:20.094Z,13.10
2022-12-25T09:39:23.355Z,13.20
2022-12-25T09:44:42.973Z,13.30
2022-12-25T09:50:06.801Z,13.50
2022-12-25T09:55:20.644Z,13.50
2022-12-25T10:00:26.103Z,13.60
2022-12-25T10:05:46.960Z,13.70
2022-12-25T10:10:56.141Z,13.80
2022-12-25T10:16:12.107Z,13.90
2022-12-25T10:21:18.253Z,14.00
2022-12-25T10:26:25.059Z,14.10
2022-12-25T10:31:30.292Z,14.30
2022-12-25T10:36:33.585Z,14.40
2022-12-25T10:41:50.996Z,14.50
2022-12-25T10:46:55.806Z,14.50
2022-12-25T10:51:58.247Z,14.50
2022-12-25T10:57:03.726Z,14.50
2022-12-25T11:02:20.046Z,14.60
2022-12-25T11:07:26.042Z,14.60
2022-12-25T11:12:48.631Z,14.70
2022-12-25T11:17:50.799Z,14.70
2022-12-25T11:22:53.081Z,14.80
2022-12-25T11:28:06.795Z,14.90
2022-12-25T11:33:13.594Z,14.80
2022-12-25T11:38:15.862Z,14.90
2022-12-25T11:43:41.219Z,15.00
2022-12-25T11:48:50.171Z,15.10
2022-12-25T11:53:58.136Z,15.20
2022-12-25T11:59:24.028Z,15.30
2022-12-25T12:04:46.447Z,15.60
2022-12-25T12:09:58.081Z,15.80
2022-12-25T12:15:21.803Z,15.90
2022-12-25T12:20:31.808Z,16.00
2022-12-25T12:25:40.518Z,15.90
2022-12-25T12:30:42.690Z,16.10
2022-12-25T12:35:45.068Z,16.30
2022-12-25T12:40:57.572Z,16.40
2022-12-25T12:46:31.500Z,16.60
2022-12-25T12:51:36.647Z,16.80
2022-12-25T12:56:38.794Z,16.90
2022-12-25T13:02:08.357Z,17.10
2022-12-25T13:07:31.987Z,17.20
2022-12-25T13:12:34.703Z,17.40
2022-12-25T13:17:37.561Z,17.50
2022-12-25T13:22:39.676Z,17.60
2022-12-25T13:27:41.785Z,17.60
2022-12-25T13:32:45.691Z,17.60
2022-12-25T13:37:48.246Z,17.60
2022-12-25T13:42:56.487Z,17.70
2022-12-25T13:48:09.323Z,17.50
2022-12-25T13:53:16.679Z,17.40
2022-12-25T13:58:22.921Z,17.40
2022-12-25T14:03:39.188Z,17.30
2022-12-25T14:08:41.709Z,17.20
2022-12-25T14:13:45.379Z,17.10
2022-12-25T14:18:58.956Z,17.10
2022-12-25T14:24:01.359Z,17.10
2022-12-25T14:29:11.189Z,17.10
2022-12-25T14:34:22.854Z,16.90
2022-12-25T14:39:35.372Z,16.90
2022-12-25T14:44:39.846Z,16.80
2022-12-25T14:49:42.559Z,16.70
2022-12-25T14:54:58.482Z,16.70
2022-12-25T15:00:08.068Z,16.60
2022-12-25T15:05:30.567Z,16.40
2022-12-25T15:16:06.270Z,16.20
2022-12-25T15:21:17.548Z,16.30
2022-12-25T15:26:19.776Z,16.00
2022-12-25T15:31:27.498Z,15.90
2022-12-25T15:36:30.188Z,15.80
2022-12-25T15:41:54.390Z,15.70
2022-12-25T15:46:57.836Z,15.70
2022-12-25T15:52:00.008Z,15.50
2022-12-25T15:57:04.973Z,15.40
2022-12-25T16:02:18.784Z,15.30
2022-12-25T16:07:23.672Z,15.20
2022-12-25T16:12:26.306Z,15.20
2022-12-25T16:17:28.398Z,15.10
2022-12-25T16:22:31.803Z,14.90
2022-12-25T16:27:33.926Z,14.80
2022-12-25T16:32:36.052Z,14.80
2022-12-25T16:37:39.055Z,14.70
2022-12-25T16:42:41.245Z,14.60
2022-12-25T16:47:43.392Z,14.60
2022-12-25T16:57:51.039Z,14.40
2022-12-25T17:02:53.401Z,14.40
2022-12-25T17:12:58.152Z,14.20
2022-12-25T17:18:00.251Z,14.10
2022-12-25T17:23:02.412Z,14.10
2022-12-25T17:28:04.812Z,14.00
2022-12-25T17:33:06.915Z,14.00
2022-12-25T17:43:15.793Z,13.80
2022-12-25T17:48:22.745Z,13.80
2022-12-25T17:53:24.882Z,13.80
2022-12-25T17:58:27.522Z,13.80
2022-12-25T18:03:29.658Z,13.70
2022-12-25T18:08:38.644Z,13.90
2022-12-25T18:13:44.725Z,13.70
2022-12-25T18:18:51.750Z,13.70
2022-12-25T18:23:54.823Z,13.80
2022-12-25T18:28:57.599Z,13.90
2022-12-25T18:34:01.399Z,14.00
2022-12-25T18:39:03.656Z,14.00
2022-12-25T18:44:05.788Z,14.00
2022-12-25T18:49:08.501Z,14.10
2022-12-25T18:54:10.552Z,14.10
2022-12-25T18:59:12.680Z,14.10
2022-12-25T19:04:16.201Z,14.20
2022-12-25T19:09:18.493Z,14.20
2022-12-25T19:14:20.673Z,14.40
2022-12-25T19:19:24.342Z,14.50
2022-12-25T19:24:26.483Z,14.70
2022-12-25T19:29:28.774Z,14.90
2022-12-25T19:34:31.032Z,15.00
2022-12-25T19:39:33.149Z,15.20
2022-12-25T19:44:35.224Z,15.20
2022-12-25T19:49:37.429Z,15.20
2022-12-25T19:54:39.598Z,15.20
2022-12-25T19:59:41.703Z,15.20
2022-12-25T20:04:43.925Z,15.10
2022-12-25T20:09:46.177Z,15.20
2022-12-25T20:14:49.301Z,15.10
2022-12-25T20:19:51.407Z,15.10
2022-12-25T20:24:53.561Z,15.10
2022-12-25T20:29:55.697Z,15.00
2022-12-25T20:34:57.859Z,15.00
2022-12-25T20:40:00.010Z,14.90
2022-12-25T20:50:05.081Z,14.80
2022-12-25T20:55:07.444Z,14.80
2022-12-25T21:00:10.681Z,14.70
2022-12-25T21:05:12.790Z,14.70
2022-12-25T21:10:14.920Z,14.70
2022-12-25T21:15:17.094Z,14.70
2022-12-25T21:20:19.303Z,14.60
2022-12-25T21:25:21.380Z,14.60
2022-12-25T21:30:23.487Z,14.70
2022-12-25T21:35:25.710Z,14.70
2022-12-25T21:40:27.892Z,14.70
2022-12-25T21:45:30.820Z,14.70
2022-12-25T21:50:51.493Z,14.70
2022-12-25T21:55:58.604Z,14.70
2022-12-25T22:01:05.074Z,14.70
2022-12-25T22:06:25.700Z,14.60
2022-12-25T22:11:46.575Z,14.70
2022-12-25T22:17:07.687Z,14.60
2022-12-25T22:22:11.203Z,14.60
2022-12-25T22:27:13.775Z,14.60
2022-12-25T22:32:16.854Z,14.60
2022-12-25T22:42:21.717Z,14.70
2022-12-25T22:47:23.874Z,14.70
2022-12-25T22:52:26.789Z,14.70
2022-12-25T22:57:29.294Z,14.70
2022-12-25T23:02:31.604Z,14.70
2022-12-25T23:07:33.958Z,14.70
2022-12-25T23:12:54.718Z,14.70
2022-12-25T23:18:15.609Z,14.80
2022-12-25T23:23:36.535Z,14.80
2022-12-25T23:29:01.761Z,14.80
2022-12-25T23:34:05.506Z,14.70
2022-12-25T23:39:10.451Z,14.80
2022-12-25T23:44:14.055Z,14.80
2022-12-25T23:49:16.900Z,14.70
2022-12-25T23:54:22.937Z,14.80
2022-12-25T23:59:26.953Z,14.80
